EWG27B LATI-EDDF
Flight info
| Callsign | EWG27B |
|---|---|
| Flight time | 1h 51m |
| Altitude | 36000 |
| Route | INLOT DCT RETRA DCT POD DCT GACMO DCT TEBLI DCT PODET DCT SIMBA DCT AKINI T161 DEBHI DEBHI1B |
| Aircraft | A320/M-SDE3FGHIRWY/LB1 |
Departure
| Time | 2026-05-05 13:51 |
|---|---|
| Airport | Tirana International Airport Mother Teresa (LATI) |
Arrival
| Time | 2026-05-05 15:42 |
|---|---|
| Airport | Frankfurt Main Airport (EDDF) |
| Time | Latitude | Longitude | Altitude | Speed | Heading |
|---|---|---|---|---|---|
| 2026-05-05 12:04 | 41.41952 | 19.71511 | 132 ft | 0 kts | 264° |
| 2026-05-05 13:40 | 41.41952 | 19.71516 | 132 ft | 3 kts | 264° |
| 2026-05-05 13:41 | 41.41954 | 19.71546 | 132 ft | 3 kts | 263° |
| 2026-05-05 13:41 | 41.41962 | 19.71570 | 132 ft | 4 kts | 193° |
| 2026-05-05 13:41 | 41.41986 | 19.71570 | 132 ft | 4 kts | 174° |
| 2026-05-05 13:41 | 41.41992 | 19.71569 | 132 ft | 0 kts | 174° |
| 2026-05-05 13:46 | 41.41988 | 19.71570 | 132 ft | 3 kts | 174° |
| 2026-05-05 13:46 | 41.41933 | 19.71577 | 132 ft | 10 kts | 174° |
| 2026-05-05 13:47 | 41.41866 | 19.71586 | 132 ft | 12 kts | 174° |
| 2026-05-05 13:47 | 41.41760 | 19.71600 | 132 ft | 20 kts | 175° |
| 2026-05-05 13:47 | 41.41583 | 19.71622 | 132 ft | 26 kts | 175° |
| 2026-05-05 13:47 | 41.41413 | 19.71645 | 132 ft | 26 kts | 174° |
| 2026-05-05 13:48 | 41.41234 | 19.71668 | 132 ft | 25 kts | 175° |
| 2026-05-05 13:48 | 41.41057 | 19.71691 | 132 ft | 26 kts | 174° |
| 2026-05-05 13:48 | 41.40884 | 19.71719 | 132 ft | 24 kts | 169° |
| 2026-05-05 13:48 | 41.40715 | 19.71758 | 132 ft | 25 kts | 173° |
| 2026-05-05 13:49 | 41.40538 | 19.71780 | 132 ft | 26 kts | 174° |
| 2026-05-05 13:49 | 41.40393 | 19.71812 | 132 ft | 15 kts | 152° |
| 2026-05-05 13:49 | 41.40312 | 19.71890 | 132 ft | 14 kts | 142° |
| 2026-05-05 13:49 | 41.40245 | 19.71970 | 132 ft | 14 kts | 118° |
| 2026-05-05 13:50 | 41.40244 | 19.72112 | 132 ft | 15 kts | 82° |
| 2026-05-05 13:50 | 41.40281 | 19.72215 | 132 ft | 10 kts | 8° |
| 2026-05-05 13:50 | 41.40317 | 19.72210 | 132 ft | 0 kts | 354° |
| 2026-05-05 13:51 | 41.40402 | 19.72198 | 132 ft | 43 kts | 354° |
| 2026-05-05 13:51 | 41.40951 | 19.72126 | 132 ft | 112 kts | 354° |
| 2026-05-05 13:51 | 41.41920 | 19.71984 | 138 ft | 164 kts | 356° |
| 2026-05-05 13:51 | 41.43035 | 19.71820 | 811 ft | 158 kts | 357° |
| 2026-05-05 13:52 | 41.44141 | 19.71680 | 1330 ft | 162 kts | 351° |
| 2026-05-05 13:52 | 41.45327 | 19.71547 | 1716 ft | 182 kts | 353° |
| 2026-05-05 13:52 | 41.46666 | 19.71421 | 2107 ft | 205 kts | 354° |
| 2026-05-05 13:52 | 41.48166 | 19.71279 | 2459 ft | 226 kts | 354° |
| 2026-05-05 13:53 | 41.49795 | 19.71119 | 2878 ft | 250 kts | 355° |
| 2026-05-05 13:53 | 41.51600 | 19.70940 | 3484 ft | 268 kts | 355° |
| 2026-05-05 13:53 | 41.53505 | 19.70749 | 4352 ft | 274 kts | 355° |
| 2026-05-05 13:53 | 41.55395 | 19.70526 | 5256 ft | 278 kts | 350° |
| 2026-05-05 13:54 | 41.57258 | 19.69853 | 6247 ft | 279 kts | 339° |
| 2026-05-05 13:54 | 41.59052 | 19.68837 | 7015 ft | 280 kts | 334° |
| 2026-05-05 13:54 | 41.60812 | 19.67692 | 7644 ft | 282 kts | 332° |
| 2026-05-05 13:54 | 41.62575 | 19.66522 | 8190 ft | 284 kts | 332° |
| 2026-05-05 13:55 | 41.64355 | 19.65368 | 8637 ft | 285 kts | 333° |
| 2026-05-05 13:55 | 41.66159 | 19.64236 | 9049 ft | 286 kts | 333° |
| 2026-05-05 13:55 | 41.67970 | 19.63131 | 9463 ft | 287 kts | 335° |
| 2026-05-05 13:55 | 41.69798 | 19.62042 | 9878 ft | 288 kts | 334° |
| 2026-05-05 13:56 | 41.71660 | 19.60937 | 10129 ft | 300 kts | 335° |
| 2026-05-05 13:56 | 41.73599 | 19.59790 | 9597 ft | 308 kts | 335° |
| 2026-05-05 13:56 | 41.75524 | 19.58655 | 9476 ft | 295 kts | 335° |
| 2026-05-05 13:56 | 41.77355 | 19.57579 | 9264 ft | 287 kts | 335° |
| 2026-05-05 13:57 | 41.79169 | 19.56507 | 9030 ft | 284 kts | 334° |
| 2026-05-05 13:57 | 41.80978 | 19.55434 | 9008 ft | 285 kts | 335° |
| 2026-05-05 13:57 | 41.82794 | 19.54354 | 8999 ft | 285 kts | 334° |
| 2026-05-05 13:57 | 41.84614 | 19.53273 | 9003 ft | 286 kts | 335° |
| 2026-05-05 13:58 | 41.86428 | 19.52194 | 9006 ft | 286 kts | 335° |
| 2026-05-05 13:58 | 41.88244 | 19.51111 | 9005 ft | 285 kts | 335° |
| 2026-05-05 13:58 | 41.90060 | 19.50027 | 9005 ft | 285 kts | 335° |
| 2026-05-05 13:58 | 41.91876 | 19.48945 | 9008 ft | 285 kts | 334° |
| 2026-05-05 13:59 | 41.95508 | 19.46779 | 9012 ft | 285 kts | 335° |
| 2026-05-05 13:59 | 41.97324 | 19.45694 | 8999 ft | 286 kts | 335° |
| 2026-05-05 14:00 | 42.01045 | 19.43727 | 9000 ft | 289 kts | 339° |
| 2026-05-05 14:00 | 42.02305 | 19.43141 | 9009 ft | 289 kts | 339° |
| 2026-05-05 14:00 | 42.04830 | 19.41990 | 9257 ft | 289 kts | 339° |
| 2026-05-05 14:00 | 42.06740 | 19.41116 | 9508 ft | 290 kts | 340° |
| 2026-05-05 14:01 | 42.08653 | 19.40230 | 9777 ft | 291 kts | 340° |
| 2026-05-05 14:01 | 42.10573 | 19.39335 | 9957 ft | 293 kts | 339° |
| 2026-05-05 14:01 | 42.12560 | 19.38398 | 10203 ft | 314 kts | 339° |
| 2026-05-05 14:01 | 42.14681 | 19.37389 | 10661 ft | 330 kts | 339° |
| 2026-05-05 14:02 | 42.16875 | 19.36346 | 11397 ft | 337 kts | 339° |
| 2026-05-05 14:02 | 42.19096 | 19.35281 | 12160 ft | 341 kts | 339° |
| 2026-05-05 14:02 | 42.21316 | 19.34217 | 12920 ft | 345 kts | 339° |
| 2026-05-05 14:02 | 42.23596 | 19.33123 | 13676 ft | 349 kts | 339° |
| 2026-05-05 14:03 | 42.25894 | 19.31987 | 14376 ft | 353 kts | 338° |
| 2026-05-05 14:03 | 42.28195 | 19.30816 | 15072 ft | 356 kts | 338° |
| 2026-05-05 14:03 | 42.30513 | 19.29619 | 15764 ft | 358 kts | 337° |
| 2026-05-05 14:03 | 42.32848 | 19.28407 | 16469 ft | 361 kts | 337° |
| 2026-05-05 14:04 | 42.35202 | 19.27193 | 17163 ft | 363 kts | 338° |
| 2026-05-05 14:04 | 42.37571 | 19.25969 | 17840 ft | 365 kts | 335° |
| 2026-05-05 14:04 | 42.39814 | 19.24358 | 18488 ft | 366 kts | 324° |
| 2026-05-05 14:04 | 42.41931 | 19.22423 | 19101 ft | 368 kts | 324° |
| 2026-05-05 14:05 | 42.44065 | 19.20486 | 19687 ft | 370 kts | 324° |
| 2026-05-05 14:05 | 42.46213 | 19.18544 | 20277 ft | 372 kts | 325° |
| 2026-05-05 14:05 | 42.48370 | 19.16595 | 20833 ft | 375 kts | 324° |
| 2026-05-05 14:05 | 42.50550 | 19.14621 | 21391 ft | 377 kts | 325° |
| 2026-05-05 14:06 | 42.52742 | 19.12626 | 21923 ft | 380 kts | 324° |
| 2026-05-05 14:06 | 42.54945 | 19.10614 | 22440 ft | 383 kts | 323° |
| 2026-05-05 14:06 | 42.57131 | 19.08614 | 22985 ft | 386 kts | 323° |
| 2026-05-05 14:06 | 42.59361 | 19.06573 | 23542 ft | 388 kts | 323° |
| 2026-05-05 14:07 | 42.61600 | 19.04520 | 24010 ft | 390 kts | 323° |
| 2026-05-05 14:07 | 42.63861 | 19.02453 | 24446 ft | 392 kts | 324° |
| 2026-05-05 14:07 | 42.66130 | 19.00383 | 24875 ft | 394 kts | 324° |
| 2026-05-05 14:07 | 42.68417 | 18.98294 | 25306 ft | 396 kts | 324° |
| 2026-05-05 14:08 | 42.70703 | 18.96190 | 25730 ft | 398 kts | 324° |
| 2026-05-05 14:08 | 42.72998 | 18.94075 | 26150 ft | 400 kts | 324° |
| 2026-05-05 14:08 | 42.75312 | 18.91945 | 26563 ft | 402 kts | 324° |
| 2026-05-05 14:08 | 42.77635 | 18.89805 | 26970 ft | 404 kts | 324° |
| 2026-05-05 14:09 | 42.79968 | 18.87652 | 27373 ft | 406 kts | 324° |
| 2026-05-05 14:09 | 42.81549 | 18.86193 | 27639 ft | 408 kts | 324° |
| 2026-05-05 14:09 | 42.83905 | 18.84019 | 28034 ft | 409 kts | 324° |
| 2026-05-05 14:09 | 42.86234 | 18.81872 | 28414 ft | 411 kts | 324° |
| 2026-05-05 14:10 | 42.88614 | 18.79675 | 28803 ft | 413 kts | 324° |
| 2026-05-05 14:10 | 42.91002 | 18.77464 | 29164 ft | 415 kts | 323° |
| 2026-05-05 14:10 | 42.93402 | 18.75238 | 29491 ft | 419 kts | 324° |
| 2026-05-05 14:10 | 42.95812 | 18.73003 | 29871 ft | 421 kts | 324° |
| 2026-05-05 14:11 | 42.98251 | 18.70742 | 30221 ft | 423 kts | 324° |
| 2026-05-05 14:11 | 43.00692 | 18.68478 | 30528 ft | 425 kts | 324° |
| 2026-05-05 14:11 | 43.03113 | 18.66232 | 30827 ft | 426 kts | 324° |
| 2026-05-05 14:11 | 43.05571 | 18.63943 | 31131 ft | 428 kts | 323° |
| 2026-05-05 14:12 | 43.08033 | 18.61647 | 31416 ft | 429 kts | 323° |
| 2026-05-05 14:12 | 43.10506 | 18.59338 | 31703 ft | 430 kts | 323° |
| 2026-05-05 14:12 | 43.12967 | 18.57039 | 32107 ft | 429 kts | 323° |
| 2026-05-05 14:12 | 43.15439 | 18.54739 | 32509 ft | 428 kts | 323° |
| 2026-05-05 14:13 | 43.17930 | 18.52494 | 32915 ft | 427 kts | 324° |
| 2026-05-05 14:13 | 43.20417 | 18.50311 | 33324 ft | 425 kts | 325° |
| 2026-05-05 14:13 | 43.22918 | 18.48145 | 33730 ft | 424 kts | 325° |
| 2026-05-05 14:13 | 43.25407 | 18.45996 | 34013 ft | 423 kts | 325° |
| 2026-05-05 14:14 | 43.30381 | 18.41667 | 34073 ft | 423 kts | 324° |
| 2026-05-05 14:14 | 43.35303 | 18.37320 | 34073 ft | 424 kts | 323° |
| 2026-05-05 14:15 | 43.40269 | 18.32914 | 34071 ft | 424 kts | 323° |
| 2026-05-05 14:15 | 43.45240 | 18.28502 | 34070 ft | 424 kts | 324° |
| 2026-05-05 14:16 | 43.50192 | 18.24096 | 34073 ft | 424 kts | 323° |
| 2026-05-05 14:16 | 43.55152 | 18.19672 | 34067 ft | 425 kts | 324° |
| 2026-05-05 14:17 | 43.60095 | 18.15274 | 34052 ft | 426 kts | 324° |
| 2026-05-05 14:17 | 43.65074 | 18.10833 | 34045 ft | 426 kts | 324° |
| 2026-05-05 14:18 | 43.70057 | 18.06376 | 34043 ft | 426 kts | 323° |
| 2026-05-05 14:18 | 43.75034 | 18.01912 | 34039 ft | 426 kts | 323° |
| 2026-05-05 14:19 | 43.79977 | 17.97467 | 34036 ft | 427 kts | 324° |
| 2026-05-05 14:19 | 43.84950 | 17.92985 | 34038 ft | 427 kts | 324° |
| 2026-05-05 14:20 | 43.89937 | 17.88484 | 34033 ft | 428 kts | 323° |
| 2026-05-05 14:20 | 43.94928 | 17.83968 | 34034 ft | 429 kts | 323° |
| 2026-05-05 14:21 | 43.99932 | 17.79424 | 34012 ft | 429 kts | 323° |
| 2026-05-05 14:21 | 44.04935 | 17.74881 | 34037 ft | 430 kts | 324° |
| 2026-05-05 14:22 | 44.09947 | 17.70329 | 34036 ft | 430 kts | 323° |
| 2026-05-05 14:22 | 44.14958 | 17.65767 | 34017 ft | 431 kts | 323° |
| 2026-05-05 14:23 | 44.19982 | 17.61177 | 34025 ft | 432 kts | 323° |
| 2026-05-05 14:23 | 44.24977 | 17.56590 | 34017 ft | 433 kts | 324° |
| 2026-05-05 14:24 | 44.30016 | 17.51960 | 34025 ft | 433 kts | 323° |
| 2026-05-05 14:24 | 44.35055 | 17.47331 | 34010 ft | 433 kts | 323° |
| 2026-05-05 14:25 | 44.40092 | 17.42685 | 34013 ft | 436 kts | 323° |
| 2026-05-05 14:25 | 44.45169 | 17.38004 | 34000 ft | 437 kts | 324° |
| 2026-05-05 14:26 | 44.50255 | 17.33305 | 34005 ft | 438 kts | 323° |
| 2026-05-05 14:26 | 44.55296 | 17.28622 | 34002 ft | 438 kts | 323° |
| 2026-05-05 14:27 | 44.60383 | 17.23892 | 33996 ft | 438 kts | 323° |
| 2026-05-05 14:27 | 44.65462 | 17.19167 | 33987 ft | 437 kts | 323° |
| 2026-05-05 14:28 | 44.70544 | 17.14430 | 33990 ft | 440 kts | 324° |
| 2026-05-05 14:28 | 44.75654 | 17.09655 | 33981 ft | 441 kts | 323° |
| 2026-05-05 14:29 | 44.80757 | 17.04869 | 33980 ft | 441 kts | 323° |
| 2026-05-05 14:29 | 44.85860 | 17.00069 | 33979 ft | 441 kts | 323° |
| 2026-05-05 14:30 | 44.90954 | 16.95272 | 33980 ft | 440 kts | 323° |
| 2026-05-05 14:30 | 44.96022 | 16.90496 | 33981 ft | 441 kts | 323° |
| 2026-05-05 14:31 | 45.01127 | 16.85673 | 33982 ft | 441 kts | 323° |
| 2026-05-05 14:31 | 45.06228 | 16.80837 | 33984 ft | 441 kts | 323° |
| 2026-05-05 14:32 | 45.11327 | 16.75989 | 33985 ft | 441 kts | 323° |
| 2026-05-05 14:32 | 45.16426 | 16.71136 | 33986 ft | 442 kts | 323° |
| 2026-05-05 14:33 | 45.21516 | 16.66244 | 33986 ft | 442 kts | 322° |
| 2026-05-05 14:33 | 45.26465 | 16.61077 | 33986 ft | 441 kts | 320° |
| 2026-05-05 14:34 | 45.31331 | 16.55779 | 33989 ft | 441 kts | 320° |
| 2026-05-05 14:34 | 45.36185 | 16.50540 | 33989 ft | 441 kts | 320° |
| 2026-05-05 14:35 | 45.41107 | 16.45292 | 33986 ft | 441 kts | 320° |
| 2026-05-05 14:35 | 45.46028 | 16.40057 | 33986 ft | 441 kts | 320° |
| 2026-05-05 14:36 | 45.50941 | 16.34805 | 33986 ft | 441 kts | 320° |
| 2026-05-05 14:36 | 45.55849 | 16.29528 | 33979 ft | 441 kts | 320° |
| 2026-05-05 14:37 | 45.60747 | 16.24244 | 33981 ft | 441 kts | 320° |
| 2026-05-05 14:37 | 45.65639 | 16.18969 | 33975 ft | 439 kts | 320° |
| 2026-05-05 14:38 | 45.70511 | 16.13707 | 34005 ft | 438 kts | 320° |
| 2026-05-05 14:38 | 45.75367 | 16.08438 | 34004 ft | 438 kts | 320° |
| 2026-05-05 14:39 | 45.80215 | 16.03162 | 34002 ft | 438 kts | 320° |
| 2026-05-05 14:39 | 45.85067 | 15.97884 | 33998 ft | 439 kts | 320° |
| 2026-05-05 14:40 | 45.89940 | 15.92577 | 33971 ft | 439 kts | 320° |
| 2026-05-05 14:40 | 45.94770 | 15.87301 | 33967 ft | 439 kts | 320° |
| 2026-05-05 14:41 | 45.99632 | 15.81966 | 33982 ft | 439 kts | 319° |
| 2026-05-05 14:41 | 46.04480 | 15.76640 | 33969 ft | 439 kts | 319° |
| 2026-05-05 14:42 | 46.09352 | 15.71289 | 33969 ft | 439 kts | 319° |
| 2026-05-05 14:42 | 46.14208 | 15.65932 | 33973 ft | 440 kts | 319° |
| 2026-05-05 14:43 | 46.19044 | 15.60511 | 33958 ft | 440 kts | 318° |
| 2026-05-05 14:43 | 46.23749 | 15.54862 | 33953 ft | 439 kts | 316° |
| 2026-05-05 14:44 | 46.28373 | 15.49160 | 33951 ft | 439 kts | 316° |
| 2026-05-05 14:44 | 46.33049 | 15.43445 | 33968 ft | 440 kts | 317° |
| 2026-05-05 14:45 | 46.37735 | 15.37777 | 33951 ft | 439 kts | 317° |
| 2026-05-05 14:45 | 46.42412 | 15.32111 | 33948 ft | 438 kts | 316° |
| 2026-05-05 14:46 | 46.47074 | 15.26421 | 33944 ft | 438 kts | 316° |
| 2026-05-05 14:46 | 46.51732 | 15.20713 | 33939 ft | 438 kts | 316° |
| 2026-05-05 14:47 | 46.56390 | 15.15004 | 33936 ft | 438 kts | 317° |
| 2026-05-05 14:47 | 46.61049 | 15.09285 | 33939 ft | 438 kts | 316° |
| 2026-05-05 14:48 | 46.65697 | 15.03557 | 33927 ft | 437 kts | 316° |
| 2026-05-05 14:48 | 46.70345 | 14.97835 | 33928 ft | 437 kts | 316° |
| 2026-05-05 14:49 | 46.74982 | 14.92104 | 33928 ft | 437 kts | 316° |
| 2026-05-05 14:49 | 46.79613 | 14.86350 | 33929 ft | 437 kts | 316° |
| 2026-05-05 14:50 | 46.84214 | 14.80636 | 33942 ft | 436 kts | 316° |
| 2026-05-05 14:50 | 46.88828 | 14.74892 | 33926 ft | 435 kts | 316° |
| 2026-05-05 14:51 | 46.93434 | 14.69144 | 33934 ft | 434 kts | 316° |
| 2026-05-05 14:51 | 46.98024 | 14.63393 | 33928 ft | 434 kts | 316° |
| 2026-05-05 14:52 | 47.02617 | 14.57635 | 33923 ft | 435 kts | 316° |
| 2026-05-05 14:52 | 47.07210 | 14.51853 | 33930 ft | 435 kts | 316° |
| 2026-05-05 14:53 | 47.11537 | 14.46397 | 33898 ft | 436 kts | 316° |
| 2026-05-05 14:53 | 47.16104 | 14.40634 | 33897 ft | 430 kts | 316° |
| 2026-05-05 14:54 | 47.20620 | 14.34923 | 33899 ft | 425 kts | 316° |
| 2026-05-05 14:54 | 47.25079 | 14.29264 | 33883 ft | 421 kts | 316° |
| 2026-05-05 14:55 | 47.29465 | 14.23681 | 33881 ft | 417 kts | 315° |
| 2026-05-05 14:55 | 47.33845 | 14.18104 | 33873 ft | 413 kts | 315° |
| 2026-05-05 14:56 | 47.38176 | 14.12572 | 33859 ft | 411 kts | 315° |
| 2026-05-05 14:56 | 47.41751 | 14.07990 | 33852 ft | 409 kts | 315° |
| 2026-05-05 14:57 | 47.46730 | 14.01598 | 33835 ft | 406 kts | 315° |
| 2026-05-05 14:57 | 47.50990 | 13.96130 | 33827 ft | 404 kts | 315° |
| 2026-05-05 14:58 | 47.54538 | 13.91563 | 33829 ft | 403 kts | 315° |
| 2026-05-05 14:58 | 47.58758 | 13.86112 | 33808 ft | 402 kts | 315° |
| 2026-05-05 14:59 | 47.62938 | 13.80704 | 33804 ft | 401 kts | 315° |
| 2026-05-05 14:59 | 47.67126 | 13.75259 | 33788 ft | 400 kts | 315° |
| 2026-05-05 15:00 | 47.71308 | 13.69822 | 33786 ft | 399 kts | 315° |
| 2026-05-05 15:00 | 47.75551 | 13.64295 | 33779 ft | 415 kts | 315° |
| 2026-05-05 15:01 | 47.79991 | 13.58489 | 33782 ft | 434 kts | 315° |
| 2026-05-05 15:01 | 47.84561 | 13.52506 | 33772 ft | 440 kts | 315° |
| 2026-05-05 15:02 | 47.89161 | 13.46485 | 33763 ft | 440 kts | 315° |
| 2026-05-05 15:02 | 47.93731 | 13.40476 | 33764 ft | 441 kts | 315° |
| 2026-05-05 15:03 | 47.98325 | 13.34416 | 33760 ft | 440 kts | 315° |
| 2026-05-05 15:03 | 48.02913 | 13.28344 | 33765 ft | 441 kts | 315° |
| 2026-05-05 15:04 | 48.07496 | 13.22257 | 33754 ft | 441 kts | 315° |
| 2026-05-05 15:04 | 48.12087 | 13.16150 | 33762 ft | 442 kts | 315° |
| 2026-05-05 15:05 | 48.18983 | 13.06972 | 33755 ft | 442 kts | 315° |
| 2026-05-05 15:06 | 48.23506 | 13.00755 | 33748 ft | 439 kts | 309° |
| 2026-05-05 15:06 | 48.27561 | 12.93911 | 33781 ft | 439 kts | 307° |
| 2026-05-05 15:07 | 48.31626 | 12.87013 | 33763 ft | 442 kts | 307° |
| 2026-05-05 15:07 | 48.35677 | 12.80135 | 33764 ft | 442 kts | 307° |
| 2026-05-05 15:08 | 48.39747 | 12.73215 | 33758 ft | 441 kts | 308° |
| 2026-05-05 15:08 | 48.43811 | 12.66267 | 33764 ft | 441 kts | 307° |
| 2026-05-05 15:09 | 48.47862 | 12.59327 | 33763 ft | 441 kts | 307° |
| 2026-05-05 15:09 | 48.51921 | 12.52361 | 33768 ft | 441 kts | 307° |
| 2026-05-05 15:10 | 48.55967 | 12.45398 | 33763 ft | 441 kts | 307° |
| 2026-05-05 15:10 | 48.60014 | 12.38415 | 33764 ft | 441 kts | 307° |
| 2026-05-05 15:11 | 48.64024 | 12.31466 | 33766 ft | 441 kts | 307° |
| 2026-05-05 15:11 | 48.68073 | 12.24434 | 33785 ft | 444 kts | 307° |
| 2026-05-05 15:12 | 48.72083 | 12.17366 | 33766 ft | 444 kts | 303° |
| 2026-05-05 15:12 | 48.75011 | 12.09274 | 33778 ft | 435 kts | 285° |
| 2026-05-05 15:13 | 48.76283 | 12.00413 | 33783 ft | 430 kts | 275° |
| 2026-05-05 15:13 | 48.77240 | 11.91458 | 33799 ft | 430 kts | 276° |
| 2026-05-05 15:14 | 48.78198 | 11.82471 | 33807 ft | 431 kts | 275° |
| 2026-05-05 15:14 | 48.79154 | 11.73488 | 33807 ft | 432 kts | 275° |
| 2026-05-05 15:15 | 48.80105 | 11.64475 | 33808 ft | 432 kts | 275° |
| 2026-05-05 15:15 | 48.81042 | 11.55478 | 33809 ft | 432 kts | 275° |
| 2026-05-05 15:16 | 48.81965 | 11.46528 | 33809 ft | 432 kts | 275° |
| 2026-05-05 15:16 | 48.82883 | 11.37501 | 33805 ft | 434 kts | 274° |
| 2026-05-05 15:17 | 48.83902 | 11.28434 | 33802 ft | 438 kts | 281° |
| 2026-05-05 15:17 | 48.86486 | 11.19981 | 33810 ft | 449 kts | 302° |
| 2026-05-05 15:18 | 48.90858 | 11.13071 | 33810 ft | 456 kts | 314° |
| 2026-05-05 15:18 | 48.95548 | 11.06557 | 33819 ft | 456 kts | 314° |
| 2026-05-05 15:19 | 49.00219 | 10.99996 | 33812 ft | 459 kts | 314° |
| 2026-05-05 15:19 | 49.04819 | 10.93508 | 33430 ft | 441 kts | 314° |
| 2026-05-05 15:19 | 49.07050 | 10.90360 | 32377 ft | 449 kts | 314° |
| 2026-05-05 15:20 | 49.09390 | 10.87057 | 31530 ft | 453 kts | 314° |
| 2026-05-05 15:20 | 49.11697 | 10.83807 | 30863 ft | 451 kts | 314° |
| 2026-05-05 15:20 | 49.13968 | 10.80598 | 30320 ft | 449 kts | 314° |
| 2026-05-05 15:20 | 49.16248 | 10.77368 | 29714 ft | 446 kts | 314° |
| 2026-05-05 15:21 | 49.18510 | 10.74154 | 29089 ft | 443 kts | 314° |
| 2026-05-05 15:21 | 49.20746 | 10.70937 | 28481 ft | 438 kts | 313° |
| 2026-05-05 15:21 | 49.22906 | 10.67669 | 27925 ft | 434 kts | 312° |
| 2026-05-05 15:21 | 49.24991 | 10.64382 | 27352 ft | 430 kts | 311° |
| 2026-05-05 15:22 | 49.27041 | 10.61074 | 26794 ft | 426 kts | 310° |
| 2026-05-05 15:22 | 49.29063 | 10.57793 | 26285 ft | 422 kts | 310° |
| 2026-05-05 15:22 | 49.31074 | 10.54549 | 25771 ft | 418 kts | 310° |
| 2026-05-05 15:22 | 49.33078 | 10.51343 | 25254 ft | 415 kts | 311° |
| 2026-05-05 15:23 | 49.35069 | 10.48176 | 24732 ft | 411 kts | 311° |
| 2026-05-05 15:23 | 49.36884 | 10.44833 | 24194 ft | 404 kts | 302° |
| 2026-05-05 15:23 | 49.38503 | 10.41319 | 23673 ft | 401 kts | 302° |
| 2026-05-05 15:23 | 49.40107 | 10.37824 | 23130 ft | 398 kts | 302° |
| 2026-05-05 15:24 | 49.41685 | 10.34374 | 22554 ft | 395 kts | 302° |
| 2026-05-05 15:24 | 49.43264 | 10.30913 | 22089 ft | 391 kts | 302° |
| 2026-05-05 15:24 | 49.44823 | 10.27490 | 21583 ft | 388 kts | 302° |
| 2026-05-05 15:24 | 49.46334 | 10.24159 | 21198 ft | 383 kts | 302° |
| 2026-05-05 15:25 | 49.47849 | 10.20815 | 20821 ft | 378 kts | 302° |
| 2026-05-05 15:25 | 49.49335 | 10.17533 | 20525 ft | 371 kts | 302° |
| 2026-05-05 15:25 | 49.50804 | 10.14283 | 20059 ft | 369 kts | 302° |
| 2026-05-05 15:25 | 49.52265 | 10.11050 | 19691 ft | 365 kts | 302° |
| 2026-05-05 15:26 | 49.53707 | 10.07857 | 19318 ft | 361 kts | 302° |
| 2026-05-05 15:26 | 49.55162 | 10.04625 | 18954 ft | 383 kts | 302° |
| 2026-05-05 15:26 | 49.56715 | 10.01166 | 18546 ft | 398 kts | 302° |
| 2026-05-05 15:26 | 49.58302 | 9.97642 | 18132 ft | 400 kts | 302° |
| 2026-05-05 15:27 | 49.59888 | 9.94124 | 17688 ft | 399 kts | 302° |
| 2026-05-05 15:27 | 49.61466 | 9.90622 | 17293 ft | 397 kts | 302° |
| 2026-05-05 15:27 | 49.63184 | 9.87280 | 16865 ft | 396 kts | 313° |
| 2026-05-05 15:27 | 49.65139 | 9.84303 | 16335 ft | 393 kts | 314° |
| 2026-05-05 15:28 | 49.67095 | 9.81369 | 15799 ft | 390 kts | 314° |
| 2026-05-05 15:28 | 49.69031 | 9.78462 | 15283 ft | 387 kts | 314° |
| 2026-05-05 15:28 | 49.70926 | 9.75609 | 14782 ft | 384 kts | 314° |
| 2026-05-05 15:28 | 49.72831 | 9.72733 | 14288 ft | 382 kts | 314° |
| 2026-05-05 15:29 | 49.74724 | 9.69866 | 13803 ft | 379 kts | 314° |
| 2026-05-05 15:29 | 49.76599 | 9.67014 | 13235 ft | 376 kts | 314° |
| 2026-05-05 15:29 | 49.78452 | 9.64189 | 12666 ft | 373 kts | 314° |
| 2026-05-05 15:29 | 49.80295 | 9.61381 | 12091 ft | 369 kts | 314° |
| 2026-05-05 15:30 | 49.82115 | 9.58592 | 11520 ft | 366 kts | 314° |
| 2026-05-05 15:30 | 49.83894 | 9.55862 | 10967 ft | 362 kts | 314° |
| 2026-05-05 15:30 | 49.85675 | 9.53129 | 10419 ft | 358 kts | 314° |
| 2026-05-05 15:30 | 49.87451 | 9.50413 | 10071 ft | 356 kts | 314° |
| 2026-05-05 15:31 | 49.89218 | 9.47711 | 9992 ft | 356 kts | 314° |
| 2026-05-05 15:31 | 49.90986 | 9.45005 | 10004 ft | 357 kts | 314° |
| 2026-05-05 15:31 | 49.92750 | 9.42304 | 9838 ft | 353 kts | 314° |
| 2026-05-05 15:31 | 49.94470 | 9.39673 | 9318 ft | 348 kts | 314° |
| 2026-05-05 15:32 | 49.96179 | 9.37062 | 9172 ft | 333 kts | 314° |
| 2026-05-05 15:32 | 49.97779 | 9.34623 | 9043 ft | 319 kts | 314° |
| 2026-05-05 15:32 | 49.99331 | 9.32262 | 8912 ft | 306 kts | 314° |
| 2026-05-05 15:32 | 50.00824 | 9.29995 | 8752 ft | 296 kts | 314° |
| 2026-05-05 15:33 | 50.02285 | 9.27782 | 8440 ft | 291 kts | 314° |
| 2026-05-05 15:33 | 50.03717 | 9.25617 | 8274 ft | 282 kts | 314° |
| 2026-05-05 15:33 | 50.05097 | 9.23537 | 8142 ft | 271 kts | 314° |
| 2026-05-05 15:33 | 50.06432 | 9.21531 | 8018 ft | 260 kts | 314° |
| 2026-05-05 15:34 | 50.07714 | 9.19603 | 7800 ft | 254 kts | 314° |
| 2026-05-05 15:34 | 50.08978 | 9.17703 | 7488 ft | 251 kts | 314° |
| 2026-05-05 15:34 | 50.10235 | 9.15814 | 7156 ft | 250 kts | 314° |
| 2026-05-05 15:34 | 50.11467 | 9.13969 | 6813 ft | 249 kts | 312° |
| 2026-05-05 15:35 | 50.12350 | 9.11732 | 6501 ft | 241 kts | 283° |
| 2026-05-05 15:35 | 50.12650 | 9.09176 | 6209 ft | 238 kts | 275° |
| 2026-05-05 15:35 | 50.12852 | 9.06632 | 5772 ft | 237 kts | 274° |
| 2026-05-05 15:35 | 50.13039 | 9.04084 | 5446 ft | 236 kts | 275° |
| 2026-05-05 15:36 | 50.13214 | 9.01546 | 5134 ft | 234 kts | 274° |
| 2026-05-05 15:36 | 50.13358 | 8.99056 | 4823 ft | 232 kts | 266° |
| 2026-05-05 15:36 | 50.12986 | 8.96662 | 4520 ft | 227 kts | 248° |
| 2026-05-05 15:36 | 50.12441 | 8.94362 | 4251 ft | 226 kts | 248° |
| 2026-05-05 15:37 | 50.11908 | 8.92103 | 4120 ft | 219 kts | 249° |
| 2026-05-05 15:37 | 50.11394 | 8.89913 | 4018 ft | 212 kts | 248° |
| 2026-05-05 15:37 | 50.10894 | 8.87786 | 3993 ft | 204 kts | 249° |
| 2026-05-05 15:37 | 50.10414 | 8.85744 | 3966 ft | 198 kts | 248° |
| 2026-05-05 15:38 | 50.09947 | 8.83757 | 3751 ft | 193 kts | 248° |
| 2026-05-05 15:38 | 50.09486 | 8.81803 | 3494 ft | 192 kts | 248° |
| 2026-05-05 15:38 | 50.09027 | 8.79854 | 3236 ft | 195 kts | 248° |
| 2026-05-05 15:38 | 50.08554 | 8.77850 | 2969 ft | 193 kts | 248° |
| 2026-05-05 15:39 | 50.08103 | 8.75937 | 2719 ft | 183 kts | 249° |
| 2026-05-05 15:39 | 50.07682 | 8.74156 | 2499 ft | 171 kts | 250° |
| 2026-05-05 15:39 | 50.07290 | 8.72500 | 2260 ft | 150 kts | 248° |
| 2026-05-05 15:39 | 50.06949 | 8.71060 | 2077 ft | 136 kts | 249° |
| 2026-05-05 15:40 | 50.06627 | 8.69701 | 1901 ft | 133 kts | 249° |
| 2026-05-05 15:40 | 50.06313 | 8.68379 | 1729 ft | 130 kts | 249° |
| 2026-05-05 15:40 | 50.06003 | 8.67072 | 1557 ft | 128 kts | 250° |
| 2026-05-05 15:40 | 50.05695 | 8.65773 | 1381 ft | 128 kts | 249° |
| 2026-05-05 15:41 | 50.05384 | 8.64460 | 1200 ft | 129 kts | 249° |
| 2026-05-05 15:41 | 50.05077 | 8.63153 | 1004 ft | 130 kts | 251° |
| 2026-05-05 15:41 | 50.04771 | 8.61825 | 831 ft | 130 kts | 249° |
| 2026-05-05 15:41 | 50.04440 | 8.60520 | 673 ft | 130 kts | 249° |
| 2026-05-05 15:42 | 50.04133 | 8.59203 | 486 ft | 129 kts | 249° |
| 2026-05-05 15:42 | 50.03830 | 8.57921 | 366 ft | 117 kts | 250° |
| 2026-05-05 15:42 | 50.03609 | 8.56995 | 352 ft | 66 kts | 250° |
| 2026-05-05 15:42 | 50.03487 | 8.56482 | 358 ft | 42 kts | 249° |
| 2026-05-05 15:43 | 50.03436 | 8.56180 | 357 ft | 20 kts | 268° |
| 2026-05-05 15:43 | 50.03445 | 8.55973 | 349 ft | 20 kts | 280° |
| 2026-05-05 15:43 | 50.03466 | 8.55780 | 351 ft | 6 kts | 279° |
| 2026-05-05 15:43 | 50.03467 | 8.55778 | 351 ft | 0 kts | 279° |
| 2026-05-05 15:44 | 50.03467 | 8.55771 | 351 ft | 3 kts | 279° |
| 2026-05-05 15:44 | 50.03476 | 8.55690 | 345 ft | 11 kts | 279° |
| 2026-05-05 15:44 | 50.03490 | 8.55556 | 345 ft | 13 kts | 276° |
| 2026-05-05 15:44 | 50.03468 | 8.55370 | 350 ft | 22 kts | 249° |
| 2026-05-05 15:45 | 50.03417 | 8.55159 | 351 ft | 20 kts | 250° |
| 2026-05-05 15:45 | 50.03370 | 8.54961 | 345 ft | 20 kts | 249° |
| 2026-05-05 15:45 | 50.03320 | 8.54753 | 338 ft | 22 kts | 250° |
| 2026-05-05 15:45 | 50.03273 | 8.54541 | 337 ft | 16 kts | 267° |
| 2026-05-05 15:46 | 50.03297 | 8.54494 | 339 ft | 4 kts | 341° |
| 2026-05-05 15:46 | 50.03340 | 8.54467 | 336 ft | 6 kts | 339° |
| 2026-05-05 15:46 | 50.03350 | 8.54461 | 335 ft | 0 kts | 339° |
| 2026-05-05 15:47 | 50.03411 | 8.54425 | 338 ft | 18 kts | 339° |
| 2026-05-05 15:48 | 50.03541 | 8.54350 | 348 ft | 22 kts | 339° |
| 2026-05-05 15:48 | 50.03667 | 8.54333 | 349 ft | 11 kts | 38° |
| 2026-05-05 15:48 | 50.03681 | 8.54384 | 348 ft | 6 kts | 77° |
| 2026-05-05 15:48 | 50.03709 | 8.54529 | 352 ft | 21 kts | 70° |
| 2026-05-05 15:49 | 50.03760 | 8.54745 | 349 ft | 19 kts | 69° |
| 2026-05-05 15:49 | 50.03788 | 8.54863 | 350 ft | 18 kts | 70° |
| 2026-05-05 15:49 | 50.03845 | 8.55100 | 353 ft | 28 kts | 70° |
| 2026-05-05 15:49 | 50.03911 | 8.55376 | 358 ft | 26 kts | 70° |
| 2026-05-05 15:50 | 50.03998 | 8.55742 | 357 ft | 28 kts | 69° |
| 2026-05-05 15:50 | 50.04042 | 8.55927 | 353 ft | 26 kts | 70° |
| 2026-05-05 15:50 | 50.04099 | 8.56169 | 358 ft | 22 kts | 69° |
| 2026-05-05 15:50 | 50.04146 | 8.56358 | 359 ft | 15 kts | 69° |
| 2026-05-05 15:51 | 50.04182 | 8.56506 | 358 ft | 15 kts | 70° |
| 2026-05-05 15:51 | 50.04219 | 8.56662 | 364 ft | 16 kts | 70° |
| 2026-05-05 15:51 | 50.04277 | 8.56803 | 359 ft | 16 kts | 20° |
| 2026-05-05 15:51 | 50.04393 | 8.56841 | 363 ft | 18 kts | 9° |
| 2026-05-05 15:52 | 50.04527 | 8.56882 | 359 ft | 20 kts | 12° |
| 2026-05-05 15:52 | 50.04647 | 8.56930 | 358 ft | 11 kts | 21° |
| 2026-05-05 15:52 | 50.04702 | 8.56967 | 362 ft | 6 kts | 25° |
| 2026-05-05 15:52 | 50.04746 | 8.56999 | 364 ft | 10 kts | 25° |
| 2026-05-05 15:53 | 50.04807 | 8.57043 | 358 ft | 8 kts | 24° |
| 2026-05-05 15:53 | 50.04840 | 8.57074 | 360 ft | 2 kts | 60° |
| 2026-05-05 15:53 | 50.04839 | 8.57089 | 359 ft | 3 kts | 96° |
| 2026-05-05 15:53 | 50.04829 | 8.57131 | 361 ft | 3 kts | 113° |
| 2026-05-05 15:54 | 50.04823 | 8.57150 | 362 ft | 2 kts | 114° |
| 2026-05-05 15:54 | 50.04818 | 8.57170 | 358 ft | 1 kts | 114° |
| 2026-05-05 15:54 | 50.04815 | 8.57180 | 360 ft | 0 kts | 115° |
| 2026-05-05 15:54 | 50.04814 | 8.57180 | 360 ft | 0 kts | 115° |